Time;durP1;ratioP1;P1;durP2;ratioP2;P2;SDS_P1;SDS_P2;PMS_P1;PMS_P2;Temp;Humidity;BMP_temperature;BMP_pressure;BME280_temperature;BME280_humidity;BME280_pressure;Samples;Min_cycle;Max_cycle;Signal;HPM_P1;HPM_P2
2022/05/20 00:01:14;;;;;;;2.58;2.38;;;23.80;54.60;;;;;;4975939;28;20206;-64
2022/05/20 00:03:41;;;;;;;2.38;2.28;;;23.80;54.70;;;;;;4976300;28;20218;-65
2022/05/20 00:06:08;;;;;;;2.50;2.40;;;23.80;54.70;;;;;;4975221;28;20557;-64
2022/05/20 00:08:38;;;;;;;2.60;2.40;;;23.80;54.70;;;;;;4976955;28;20717;-64
2022/05/20 00:11:05;;;;;;;2.85;2.65;;;23.70;54.70;;;;;;4976426;28;20569;-64
2022/05/20 00:13:32;;;;;;;2.28;2.17;;;23.70;54.70;;;;;;4974210;28;20218;-64
2022/05/20 00:15:59;;;;;;;3.30;2.60;;;23.70;54.70;;;;;;4976852;28;20233;-64
2022/05/20 00:18:27;;;;;;;2.40;2.30;;;23.60;54.60;;;;;;4975749;28;20209;-64
2022/05/20 00:20:54;;;;;;;2.60;2.42;;;23.60;54.70;;;;;;4976000;28;20230;-64
2022/05/20 00:23:22;;;;;;;2.50;2.33;;;23.70;54.80;;;;;;4976110;28;20210;-64
2022/05/20 00:25:50;;;;;;;2.55;2.35;;;23.70;54.90;;;;;;4974587;28;20577;-64
2022/05/20 00:28:20;;;;;;;2.80;2.60;;;23.60;54.80;;;;;;4975681;28;20216;-64
2022/05/20 00:30:48;;;;;;;2.53;2.33;;;23.60;54.80;;;;;;4975934;28;20202;-64
2022/05/20 00:33:16;;;;;;;2.25;2.15;;;23.60;54.90;;;;;;4975693;28;20210;-64
2022/05/20 00:35:43;;;;;;;2.50;2.30;;;23.60;54.90;;;;;;4975733;28;20718;-64
2022/05/20 00:38:10;;;;;;;2.70;2.50;;;23.50;54.80;;;;;;4975706;28;20662;-64
2022/05/20 00:40:37;;;;;;;2.80;2.60;;;23.50;55.00;;;;;;4974321;28;20233;-65
2022/05/20 00:43:16;;;;;;;2.90;2.70;;;23.50;55.00;;;;;;4975859;28;20264;-64
2022/05/20 00:45:46;;;;;;;2.70;2.50;;;23.50;55.10;;;;;;4975649;28;20182;-65
2022/05/20 00:48:13;;;;;;;2.95;2.75;;;23.50;55.10;;;;;;4975379;28;20681;-65
2022/05/20 00:50:42;;;;;;;2.20;2.10;;;23.40;55.10;;;;;;4974157;28;20198;-64
2022/05/20 00:53:09;;;;;;;3.00;2.58;;;23.50;55.20;;;;;;4975433;28;20214;-65
2022/05/20 00:55:37;;;;;;;2.63;2.42;;;23.50;55.10;;;;;;4975356;28;20188;-65
2022/05/20 00:58:07;;;;;;;2.83;2.63;;;23.40;55.60;;;;;;4975503;28;20576;-64
2022/05/20 01:00:38;;;;;;;3.10;2.80;;;23.40;55.10;;;;;;4973942;28;20208;-65
2022/05/20 01:03:05;;;;;;;2.92;2.72;;;23.40;55.00;;;;;;4975179;28;20233;-64
2022/05/20 01:05:35;;;;;;;2.75;2.55;;;23.40;55.10;;;;;;4975546;28;20194;-65
2022/05/20 01:08:02;;;;;;;2.53;2.35;;;23.40;55.10;;;;;;4975133;28;20208;-64
2022/05/20 01:10:29;;;;;;;3.08;2.83;;;23.40;55.10;;;;;;4973644;28;20204;-65
2022/05/20 01:12:56;;;;;;;2.72;2.53;;;23.40;55.10;;;;;;4975032;28;20194;-64
2022/05/20 01:15:23;;;;;;;3.10;2.90;;;23.40;55.10;;;;;;4975197;28;20197;-64
2022/05/20 01:17:53;;;;;;;2.97;2.78;;;23.40;55.10;;;;;;4973624;28;20744;-64
2022/05/20 01:20:23;;;;;;;3.30;2.45;;;23.30;55.10;;;;;;4974801;28;20261;-64
2022/05/20 01:23:02;;;;;;;3.10;2.90;;;23.30;55.00;;;;;;4974958;28;20261;-65
2022/05/20 01:25:30;;;;;;;2.75;2.55;;;23.30;55.10;;;;;;4974010;28;20587;-64
2022/05/20 01:27:57;;;;;;;2.90;2.60;;;23.30;55.10;;;;;;4974975;28;20217;-64
2022/05/20 01:30:25;;;;;;;3.13;2.83;;;23.30;55.70;;;;;;4974842;28;20194;-64
2022/05/20 01:32:52;;;;;;;3.00;2.80;;;23.30;55.20;;;;;;4973350;28;20230;-64
2022/05/20 01:35:22;;;;;;;2.95;2.72;;;23.30;55.20;;;;;;4973151;28;20202;-64
2022/05/20 01:37:49;;;;;;;3.72;2.92;;;23.30;55.20;;;;;;4974792;28;20194;-64
2022/05/20 01:40:18;;;;;;;2.67;2.47;;;23.30;55.20;;;;;;4973144;28;20298;-64
2022/05/20 01:42:50;;;;;;;3.20;2.90;;;23.20;55.20;;;;;;4974700;28;20536;-64
2022/05/20 01:45:18;;;;;;;3.03;2.70;;;23.20;55.20;;;;;;4974496;28;20193;-64
2022/05/20 01:47:47;;;;;;;3.00;2.70;;;23.20;55.30;;;;;;4974522;28;20193;-64
2022/05/20 01:50:17;;;;;;;3.10;2.70;;;23.20;55.30;;;;;;4974361;28;20693;-65
2022/05/20 01:52:49;;;;;;;4.22;2.83;;;23.20;55.30;;;;;;4972992;28;20549;-64
2022/05/20 01:55:19;;;;;;;2.75;2.55;;;23.10;55.20;;;;;;4974385;28;20241;-64
2022/05/20 01:57:49;;;;;;;2.80;2.60;;;23.10;55.30;;;;;;4974541;28;20277;-64
2022/05/20 02:00:19;;;;;;;2.70;2.50;;;23.10;55.30;;;;;;4974513;28;20189;-64
2022/05/20 02:02:50;;;;;;;2.80;2.60;;;23.10;55.30;;;;;;4974297;28;20209;-64
2022/05/20 02:05:25;;;;;;;3.50;2.80;;;23.10;55.30;;;;;;4973275;28;20685;-64
2022/05/20 02:07:55;;;;;;;2.90;2.70;;;23.10;55.30;;;;;;4972958;28;20625;-65
2022/05/20 02:12:53;;;;;;;3.00;2.80;;;23.10;55.40;;;;;;4972251;28;20224;-72
2022/05/20 02:15:22;;;;;;;3.40;3.10;;;23.10;55.40;;;;;;4989976;28;20292;-72
2022/05/20 02:17:52;;;;;;;2.95;2.70;;;23.10;55.30;;;;;;4975150;28;20206;-73
2022/05/20 02:20:21;;;;;;;3.13;2.83;;;23.10;55.40;;;;;;4973541;28;20194;-72
2022/05/20 02:22:51;;;;;;;3.45;2.70;;;23.10;55.40;;;;;;4973427;28;20213;-72
2022/05/20 02:25:20;;;;;;;3.00;2.80;;;23.10;55.40;;;;;;4973490;28;20726;-72
2022/05/20 02:27:53;;;;;;;2.90;2.35;;;23.10;55.40;;;;;;4973208;28;20245;-72
2022/05/20 02:30:24;;;;;;;2.90;2.70;;;23.00;55.30;;;;;;4973127;28;20622;-72
2022/05/20 02:32:54;;;;;;;2.95;2.75;;;23.00;55.30;;;;;;4973111;28;20198;-72
2022/05/20 02:35:21;;;;;;;2.80;2.60;;;23.00;55.30;;;;;;4973092;28;20614;-72
2022/05/20 02:37:48;;;;;;;2.88;2.67;;;23.10;55.40;;;;;;4974925;28;20260;-72
2022/05/20 02:40:16;;;;;;;2.67;2.53;;;23.00;55.30;;;;;;4976972;28;20640;-72
2022/05/20 02:42:44;;;;;;;3.10;2.80;;;23.00;55.40;;;;;;4976942;28;20214;-72
2022/05/20 02:45:13;;;;;;;3.08;2.83;;;23.00;55.40;;;;;;4978261;28;20209;-72
2022/05/20 02:47:40;;;;;;;3.92;3.00;;;23.00;55.40;;;;;;4976531;28;20777;-72
2022/05/20 02:50:10;;;;;;;2.70;2.50;;;23.00;55.40;;;;;;4976417;28;20218;-72
2022/05/20 02:52:37;;;;;;;2.85;2.65;;;23.00;55.40;;;;;;4976477;28;20293;-72
2022/05/20 02:55:05;;;;;;;3.30;2.95;;;23.00;55.40;;;;;;4976462;28;20233;-72
2022/05/20 02:57:33;;;;;;;2.80;2.60;;;23.00;55.40;;;;;;4976303;28;20249;-72
2022/05/20 03:05:30;;;;;;;2.95;2.70;;;23.00;55.50;;;;;;4976288;28;20741;-72
2022/05/20 03:07:57;;;;;;;2.90;2.70;;;23.00;55.50;;;;;;4976002;28;20218;-72
2022/05/20 03:10:26;;;;;;;3.30;3.00;;;23.00;55.50;;;;;;4976403;28;20205;-72
2022/05/20 03:12:58;;;;;;;3.33;3.03;;;23.00;55.60;;;;;;4976341;28;20241;-72
2022/05/20 03:15:25;;;;;;;3.25;2.85;;;23.00;55.70;;;;;;4976749;28;20222;-72
2022/05/20 03:17:54;;;;;;;4.63;3.08;;;23.00;55.70;;;;;;4975962;28;20651;-72
2022/05/20 03:20:21;;;;;;;3.72;3.05;;;23.00;55.70;;;;;;4975986;28;20285;-72
2022/05/20 03:22:49;;;;;;;3.05;2.75;;;23.00;55.70;;;;;;4975964;28;20203;-72
2022/05/20 03:25:16;;;;;;;2.80;2.60;;;23.00;55.50;;;;;;4977590;28;20193;-72
2022/05/20 03:27:44;;;;;;;3.47;3.17;;;23.00;55.50;;;;;;4976018;28;20230;-72
2022/05/20 03:30:12;;;;;;;3.95;3.47;;;23.10;55.50;;;;;;4976149;28;20252;-72
2022/05/20 03:32:39;;;;;;;3.80;3.42;;;23.10;55.30;;;;;;4975994;28;20212;-72
2022/05/20 03:35:09;;;;;;;3.40;3.10;;;23.10;55.20;;;;;;4975694;28;20233;-72
2022/05/20 03:37:36;;;;;;;3.63;3.28;;;23.20;55.30;;;;;;4975609;28;20269;-72
2022/05/20 03:40:04;;;;;;;4.28;3.00;;;23.20;55.10;;;;;;4975700;28;20261;-72
2022/05/20 03:42:31;;;;;;;2.90;2.67;;;23.20;55.10;;;;;;4975752;28;20209;-72
2022/05/20 03:44:58;;;;;;;4.25;3.20;;;23.20;55.10;;;;;;4975889;28;20205;-72
2022/05/20 03:47:25;;;;;;;4.00;3.30;;;23.20;55.10;;;;;;4975681;28;20194;-72
2022/05/20 03:49:52;;;;;;;3.45;3.13;;;23.20;55.10;;;;;;4975140;28;20252;-72
2022/05/20 03:52:20;;;;;;;3.75;3.45;;;23.20;55.70;;;;;;4975799;28;20234;-72
2022/05/20 03:54:47;;;;;;;3.20;2.90;;;23.20;55.10;;;;;;4975646;28;20201;-72
2022/05/20 03:57:14;;;;;;;3.45;3.15;;;23.20;55.10;;;;;;4975567;28;20198;-72
2022/05/20 03:59:41;;;;;;;3.60;2.97;;;23.20;55.10;;;;;;4975613;28;20194;-72
2022/05/20 04:02:09;;;;;;;3.42;3.03;;;23.20;55.10;;;;;;4975296;28;20248;-73
2022/05/20 04:04:37;;;;;;;3.05;2.75;;;23.20;55.20;;;;;;4975877;28;20194;-72
2022/05/20 04:07:06;;;;;;;4.03;3.10;;;23.20;55.70;;;;;;4975160;28;20202;-72
2022/05/20 04:09:34;;;;;;;3.67;3.38;;;23.20;55.10;;;;;;4974923;28;20292;-72
2022/05/20 04:12:03;;;;;;;3.33;3.10;;;23.20;55.10;;;;;;4974976;28;20201;-72
2022/05/20 04:14:30;;;;;;;3.80;3.53;;;23.20;55.20;;;;;;4976159;28;20194;-72
2022/05/20 04:16:58;;;;;;;3.20;2.95;;;23.20;55.40;;;;;;4975049;28;20273;-72
2022/05/20 04:19:25;;;;;;;4.13;3.72;;;23.20;55.30;;;;;;4974815;28;20221;-72
2022/05/20 04:21:53;;;;;;;4.22;3.78;;;23.20;55.30;;;;;;4974757;28;20529;-72
2022/05/20 04:24:20;;;;;;;3.85;3.55;;;23.20;55.40;;;;;;4974801;28;20198;-72
2022/05/20 04:26:48;;;;;;;3.53;3.22;;;23.20;55.50;;;;;;4974888;28;20202;-72
2022/05/20 04:29:15;;;;;;;4.97;3.55;;;23.20;55.70;;;;;;4974741;28;20222;-72
2022/05/20 04:31:44;;;;;;;3.47;3.17;;;23.20;55.50;;;;;;4975231;28;20611;-72
2022/05/20 04:34:11;;;;;;;3.65;3.35;;;23.20;55.50;;;;;;4974796;28;20206;-72
2022/05/20 04:36:38;;;;;;;3.45;3.15;;;23.20;55.50;;;;;;4975113;28;20297;-72
2022/05/20 04:39:05;;;;;;;3.53;3.22;;;23.20;55.50;;;;;;4974835;28;20587;-72
2022/05/20 04:47:04;;;;;;;3.67;3.38;;;23.20;55.50;;;;;;4974392;28;20221;-72
2022/05/20 04:49:32;;;;;;;3.05;2.85;;;23.20;55.40;;;;;;4974217;28;20595;-72
2022/05/20 04:52:00;;;;;;;3.47;3.17;;;23.20;55.30;;;;;;4975918;28;20268;-72
2022/05/20 04:57:31;;;;;;;3.45;3.10;;;23.30;55.40;;;;;;4900195;29;20317;-72
2022/05/20 05:00:01;;;;;;;3.75;3.45;;;23.40;55.40;;;;;;4900308;29;20199;-72
2022/05/20 05:02:28;;;;;;;3.75;3.45;;;23.50;55.20;;;;;;4935363;28;20236;-72
2022/05/20 05:04:55;;;;;;;3.80;3.35;;;23.70;55.00;;;;;;4974154;28;20648;-71
2022/05/20 05:07:23;;;;;;;4.05;3.42;;;23.80;54.70;;;;;;4973887;28;20198;-72
2022/05/20 05:09:50;;;;;;;4.20;3.78;;;24.00;54.50;;;;;;4973945;28;20230;-72
2022/05/20 05:12:17;;;;;;;4.28;3.50;;;24.10;54.20;;;;;;4973903;28;20229;-72
2022/05/20 05:14:45;;;;;;;4.32;3.80;;;24.30;54.00;;;;;;4973908;28;20206;-72
2022/05/20 05:17:16;;;;;;;5.10;4.43;;;24.40;53.70;;;;;;4973710;28;20202;-72
2022/05/20 05:19:44;;;;;;;4.45;3.70;;;24.50;53.30;;;;;;4973821;28;20782;-72
2022/05/20 05:22:11;;;;;;;3.63;3.25;;;24.70;53.00;;;;;;4973767;28;20675;-72
2022/05/20 05:24:38;;;;;;;4.25;3.58;;;24.70;52.90;;;;;;4973601;28;20317;-72
2022/05/20 05:27:06;;;;;;;4.25;3.58;;;24.80;52.60;;;;;;4973836;28;20198;-72
2022/05/20 05:29:34;;;;;;;3.83;3.53;;;24.90;52.40;;;;;;4973512;28;20222;-72
2022/05/20 05:32:02;;;;;;;3.60;3.30;;;25.00;52.10;;;;;;4973627;28;20194;-72
2022/05/20 05:34:30;;;;;;;4.50;4.00;;;25.10;51.80;;;;;;4973836;28;20197;-72
2022/05/20 05:36:57;;;;;;;3.85;3.40;;;25.20;51.60;;;;;;4973826;28;20206;-72
2022/05/20 05:39:24;;;;;;;4.28;3.70;;;25.30;52.00;;;;;;4973680;28;20304;-72
2022/05/20 05:41:51;;;;;;;3.80;3.47;;;25.40;51.30;;;;;;4973393;28;20679;-72
2022/05/20 05:44:18;;;;;;;3.00;2.80;;;25.40;51.80;;;;;;4973741;28;20228;-74
2022/05/20 05:46:46;;;;;;;3.92;3.42;;;25.50;51.00;;;;;;4973631;28;20233;-72
2022/05/20 05:49:13;;;;;;;3.63;3.33;;;25.60;51.00;;;;;;4973584;28;20273;-72
2022/05/20 05:51:41;;;;;;;3.67;3.15;;;25.60;50.80;;;;;;4973640;28;20229;-72
2022/05/20 05:54:09;;;;;;;4.50;3.20;;;25.70;50.70;;;;;;4973939;28;20249;-72
2022/05/20 05:56:36;;;;;;;4.60;2.97;;;25.70;50.40;;;;;;4974198;28;20300;-72
2022/05/20 05:59:03;;;;;;;3.67;3.30;;;25.80;50.20;;;;;;4975067;28;20232;-72
2022/05/20 06:01:30;;;;;;;3.42;3.13;;;25.90;50.00;;;;;;4973994;28;20248;-72
2022/05/20 06:03:58;;;;;;;3.38;3.08;;;26.00;49.80;;;;;;4974314;28;20202;-72
2022/05/20 06:06:25;;;;;;;3.33;3.08;;;26.10;49.50;;;;;;4974525;28;20202;-72
2022/05/20 06:08:53;;;;;;;3.20;3.00;;;26.20;49.30;;;;;;4977540;28;20228;-72
2022/05/20 06:11:20;;;;;;;3.40;3.10;;;26.20;49.80;;;;;;4973809;28;20242;-72
2022/05/20 06:13:47;;;;;;;3.30;3.00;;;26.30;49.00;;;;;;4977460;28;20260;-72
2022/05/20 06:16:19;;;;;;;3.75;2.97;;;26.40;48.90;;;;;;4977350;28;20686;-72
2022/05/20 06:18:46;;;;;;;3.13;2.83;;;26.40;48.70;;;;;;4977307;28;20237;-72
2022/05/20 06:21:13;;;;;;;3.17;2.92;;;26.50;48.50;;;;;;4977471;28;20285;-72
2022/05/20 06:23:40;;;;;;;3.28;2.97;;;26.60;48.50;;;;;;4977418;28;20293;-72
2022/05/20 06:26:09;;;;;;;2.92;2.72;;;26.60;48.20;;;;;;4977405;28;20204;-72
2022/05/20 06:28:36;;;;;;;2.92;2.72;;;26.70;48.60;;;;;;4977663;28;20217;-72
2022/05/20 06:31:02;;;;;;;3.13;2.78;;;26.80;47.80;;;;;;4977375;28;20300;-72
2022/05/20 06:33:29;;;;;;;3.13;2.80;;;26.90;47.60;;;;;;4980183;28;20198;-72
2022/05/20 06:41:27;;;;;;;2.60;2.50;;;27.10;46.90;;;;;;4976995;28;20210;-72
2022/05/20 06:43:55;;;;;;;2.83;2.63;;;27.20;46.70;;;;;;4978110;28;20194;-72
2022/05/20 06:46:22;;;;;;;2.83;2.60;;;27.30;46.60;;;;;;4976790;28;20206;-72
2022/05/20 06:48:50;;;;;;;2.90;2.60;;;27.30;46.30;;;;;;4976576;28;20222;-72
2022/05/20 06:51:20;;;;;;;2.50;2.30;;;27.40;46.20;;;;;;4976750;28;20631;-72
2022/05/20 06:53:47;;;;;;;3.15;2.65;;;27.50;46.00;;;;;;4977844;28;20245;-72
2022/05/20 06:56:15;;;;;;;2.50;2.30;;;27.60;45.90;;;;;;4976633;28;20206;-72
2022/05/20 06:58:43;;;;;;;2.85;2.65;;;27.70;45.70;;;;;;4976445;28;20249;-72
2022/05/20 07:01:11;;;;;;;2.80;2.60;;;27.70;45.40;;;;;;4976357;28;20288;-72
2022/05/20 07:03:38;;;;;;;3.47;2.47;;;27.80;46.00;;;;;;4976416;28;20611;-72
2022/05/20 07:06:05;;;;;;;3.00;2.80;;;27.80;45.40;;;;;;4978020;28;20190;-73
2022/05/20 07:08:33;;;;;;;2.80;2.60;;;27.80;45.40;;;;;;4976309;28;20222;-72
2022/05/20 07:11:02;;;;;;;3.08;2.88;;;27.80;45.40;;;;;;4976249;28;20245;-72
2022/05/20 07:13:29;;;;;;;2.63;2.30;;;27.80;45.40;;;;;;4976194;28;20197;-72
2022/05/20 07:15:58;;;;;;;2.90;2.70;;;27.80;45.30;;;;;;4976111;28;20281;-72
2022/05/20 07:18:25;;;;;;;2.90;2.70;;;27.90;45.20;;;;;;4976191;28;20233;-72
2022/05/20 07:20:53;;;;;;;2.75;2.55;;;28.00;45.10;;;;;;4976111;28;20225;-72
2022/05/20 07:23:22;;;;;;;2.65;2.45;;;28.00;44.80;;;;;;4976817;28;20204;-72
2022/05/20 07:25:50;;;;;;;3.08;2.78;;;28.10;44.70;;;;;;4976079;28;20209;-72
2022/05/20 07:28:17;;;;;;;2.92;2.70;;;28.20;44.60;;;;;;4977212;28;20242;-72
2022/05/20 07:30:45;;;;;;;2.67;2.47;;;28.20;44.40;;;;;;4975848;28;20218;-72
2022/05/20 07:33:13;;;;;;;2.63;2.42;;;28.30;44.30;;;;;;4975811;28;20198;-72
2022/05/20 07:35:40;;;;;;;2.60;2.40;;;28.30;44.10;;;;;;4975742;28;20240;-73
2022/05/20 07:38:08;;;;;;;2.72;2.50;;;28.40;44.00;;;;;;4976011;28;20287;-72
2022/05/20 07:40:35;;;;;;;2.72;2.58;;;28.40;43.90;;;;;;4975736;28;20193;-72
2022/05/20 07:43:02;;;;;;;2.67;2.47;;;28.50;43.80;;;;;;4975533;28;20272;-72
2022/05/20 07:45:29;;;;;;;2.90;2.20;;;28.50;43.70;;;;;;4975560;28;20293;-72
2022/05/20 07:47:56;;;;;;;2.63;2.42;;;28.60;43.70;;;;;;4975391;28;20223;-72
2022/05/20 07:50:25;;;;;;;2.65;2.50;;;28.60;43.50;;;;;;4975417;28;20690;-72
2022/05/20 07:55:38;;;;;;;3.13;2.90;;;28.70;43.30;;;;;;4975442;28;20193;-72
2022/05/20 07:58:06;;;;;;;2.50;2.30;;;28.70;43.20;;;;;;4975161;28;20221;-72
2022/05/20 08:00:34;;;;;;;2.67;2.47;;;28.70;43.20;;;;;;4975342;28;20189;-72
2022/05/20 08:03:01;;;;;;;2.50;2.30;;;28.80;43.80;;;;;;4975419;28;20725;-72
2022/05/20 08:05:29;;;;;;;2.72;2.55;;;28.80;43.00;;;;;;4976628;28;20215;-73
2022/05/20 08:07:59;;;;;;;2.50;2.30;;;28.80;43.00;;;;;;4975237;28;20225;-73
2022/05/20 08:10:27;;;;;;;2.60;2.40;;;28.80;43.60;;;;;;4975197;28;20260;-73
2022/05/20 08:12:56;;;;;;;2.38;2.28;;;28.80;43.60;;;;;;4975443;28;20211;-74
2022/05/20 08:15:24;;;;;;;2.55;2.42;;;28.90;43.00;;;;;;4975411;28;20252;-72
2022/05/20 08:17:51;;;;;;;2.95;2.75;;;28.90;43.00;;;;;;4975040;28;20312;-72
2022/05/20 08:20:22;;;;;;;2.30;2.20;;;28.90;43.00;;;;;;4959150;28;20205;-72
2022/05/20 08:22:51;;;;;;;2.88;2.28;;;28.90;42.90;;;;;;4975488;28;20185;-73
2022/05/20 08:25:18;;;;;;;2.60;2.40;;;28.90;42.80;;;;;;4975983;28;20204;-72
2022/05/20 08:27:45;;;;;;;2.70;2.50;;;28.90;42.70;;;;;;4974747;28;20276;-73
2022/05/20 08:30:13;;;;;;;2.10;2.00;;;28.90;42.70;;;;;;4974521;28;20312;-73
2022/05/20 08:32:40;;;;;;;2.33;2.22;;;29.00;42.70;;;;;;4974914;28;20193;-73
2022/05/20 08:37:59;;;;;;;2.50;2.30;;;29.00;42.60;;;;;;4956797;29;20205;-70
2022/05/20 08:40:29;;;;;;;2.30;2.10;;;29.00;42.50;;;;;;4955994;29;20198;-70
2022/05/20 08:42:57;;;;;;;2.65;2.47;;;29.00;42.50;;;;;;4956929;28;20197;-71
2022/05/20 08:45:26;;;;;;;2.75;2.55;;;29.00;42.50;;;;;;4956930;28;20210;-71
2022/05/20 08:47:53;;;;;;;2.30;2.20;;;29.00;42.50;;;;;;4955836;28;20201;-71
2022/05/20 08:50:23;;;;;;;2.33;2.22;;;29.00;42.50;;;;;;4956771;28;20318;-71
2022/05/20 08:52:50;;;;;;;2.45;2.25;;;29.00;42.50;;;;;;4957118;28;20560;-71
2022/05/20 08:55:19;;;;;;;2.55;2.35;;;29.00;42.50;;;;;;4971732;28;20228;-71
2022/05/20 08:57:47;;;;;;;2.30;2.20;;;29.00;42.50;;;;;;4956669;29;20204;-71
2022/05/20 09:00:15;;;;;;;2.40;2.25;;;29.00;42.50;;;;;;4982864;28;20222;-71
2022/05/20 09:02:42;;;;;;;2.40;2.20;;;29.10;42.40;;;;;;4975907;28;20233;-71
2022/05/20 09:05:15;;;;;;;2.17;2.08;;;29.10;42.40;;;;;;4958020;29;20575;-71
2022/05/20 09:07:55;;;;;;;2.28;2.17;;;29.10;42.40;;;;;;4958528;28;20238;-71
2022/05/20 09:10:30;;;;;;;2.40;2.20;;;29.10;42.50;;;;;;4965750;28;20269;-71
2022/05/20 09:13:06;;;;;;;2.30;2.20;;;29.10;42.50;;;;;;5024154;23;20240;-69
2022/05/20 09:15:44;;;;;;;2.25;2.15;;;29.10;42.50;;;;;;4994047;28;20217;-71
2022/05/20 09:18:13;;;;;;;2.40;2.30;;;29.10;42.50;;;;;;4975732;28;20300;-71
2022/05/20 09:20:42;;;;;;;2.60;2.40;;;29.10;42.50;;;;;;4976250;28;20281;-71
2022/05/20 09:23:10;;;;;;;3.05;2.15;;;29.00;42.50;;;;;;4974782;28;20228;-71
2022/05/20 09:25:46;;;;;;;2.30;2.20;;;29.10;42.50;;;;;;4975109;28;20221;-71
2022/05/20 09:28:23;;;;;;;2.45;2.33;;;29.10;42.60;;;;;;4975370;28;20201;-71
2022/05/20 09:30:51;;;;;;;2.15;2.05;;;29.10;42.60;;;;;;4975644;28;20268;-71
2022/05/20 09:33:21;;;;;;;2.38;2.22;;;29.00;42.50;;;;;;4975747;28;20201;-71
2022/05/20 09:35:50;;;;;;;2.30;2.10;;;29.00;42.60;;;;;;4974883;28;20653;-71
2022/05/20 09:38:31;;;;;;;2.35;2.15;;;29.00;42.60;;;;;;4974115;28;20678;-71
2022/05/20 09:40:59;;;;;;;2.30;2.13;;;29.00;42.70;;;;;;4973854;28;20565;-71
2022/05/20 09:43:28;;;;;;;2.10;2.00;;;29.00;42.70;;;;;;4974314;28;20189;-71
2022/05/20 09:45:56;;;;;;;2.30;2.20;;;29.00;42.70;;;;;;4974130;28;20320;-71
2022/05/20 09:48:25;;;;;;;2.35;2.20;;;29.00;42.80;;;;;;4973443;28;20248;-71
2022/05/20 09:51:08;;;;;;;2.40;2.30;;;28.90;42.80;;;;;;4974979;28;20697;-71
2022/05/20 09:53:39;;;;;;;3.13;2.30;;;28.90;42.90;;;;;;4972984;28;20248;-71
2022/05/20 09:56:20;;;;;;;2.10;2.00;;;28.90;43.00;;;;;;4973612;28;20706;-71
2022/05/20 09:58:59;;;;;;;2.30;2.20;;;28.90;43.00;;;;;;4973745;28;20291;-71
2022/05/20 10:01:26;;;;;;;2.03;1.92;;;28.80;43.00;;;;;;4974139;28;20197;-71
2022/05/20 10:03:57;;;;;;;2.47;2.38;;;28.80;43.00;;;;;;4973499;28;20666;-71
2022/05/20 10:06:26;;;;;;;2.58;2.40;;;28.80;43.00;;;;;;4973626;28;20311;-71
2022/05/20 10:08:58;;;;;;;1.90;1.80;;;28.80;43.60;;;;;;4973380;28;20244;-71
2022/05/20 10:11:30;;;;;;;2.20;2.10;;;28.70;42.90;;;;;;4974904;28;20198;-71
2022/05/20 10:13:57;;;;;;;2.25;2.15;;;28.70;43.00;;;;;;4973836;28;20212;-71
2022/05/20 10:16:42;;;;;;;2.40;2.20;;;28.70;43.20;;;;;;4975092;28;20212;-71
2022/05/20 10:19:12;;;;;;;2.08;1.98;;;28.70;43.30;;;;;;4973687;28;20201;-71
2022/05/20 10:21:51;;;;;;;2.20;2.10;;;28.60;43.20;;;;;;4973453;28;20201;-71
2022/05/20 10:24:29;;;;;;;2.28;2.08;;;28.60;43.40;;;;;;4973599;28;20197;-71
2022/05/20 10:27:01;;;;;;;2.05;1.95;;;28.60;43.50;;;;;;4973551;28;20213;-70
2022/05/20 10:32:35;;;;;;;2.20;2.10;;;28.50;43.60;;;;;;4973740;28;20709;-71
2022/05/20 10:35:04;;;;;;;2.00;1.90;;;28.50;43.70;;;;;;4973429;28;20198;-71
2022/05/20 10:37:55;;;;;;;2.40;2.20;;;28.40;44.30;;;;;;4973544;28;20194;-70
2022/05/20 10:40:42;;;;;;;2.15;2.05;;;28.40;43.90;;;;;;4978641;28;20194;-71
2022/05/20 10:43:22;;;;;;;2.28;2.17;;;28.30;43.90;;;;;;4973491;28;20202;-70
2022/05/20 10:48:59;;;;;;;2.40;2.30;;;28.30;44.80;;;;;;4973641;28;20197;-71
2022/05/20 10:51:41;;;;;;;2.15;2.05;;;28.20;44.20;;;;;;4963382;28;20217;-71
2022/05/20 10:54:18;;;;;;;2.20;2.10;;;28.20;44.30;;;;;;4973390;28;20200;-71
2022/05/20 10:56:53;;;;;;;2.00;1.90;;;28.20;44.40;;;;;;4973006;28;20221;-72
2022/05/20 10:59:45;;;;;;;2.22;2.10;;;28.20;45.10;;;;;;4975875;28;20189;-71
2022/05/20 11:02:23;;;;;;;2.05;1.95;;;28.10;44.50;;;;;;4977933;28;20178;-72
2022/05/20 11:04:58;;;;;;;2.20;2.10;;;28.10;44.60;;;;;;4978934;28;20185;-70
2022/05/20 11:07:42;;;;;;;2.30;2.20;;;28.10;44.70;;;;;;4977916;28;20188;-70
2022/05/20 11:10:20;;;;;;;2.35;2.15;;;28.00;44.80;;;;;;4976866;28;20213;-70
2022/05/20 11:12:51;;;;;;;2.00;1.90;;;28.00;44.80;;;;;;4977510;28;20219;-70
2022/05/20 11:15:27;;;;;;;2.50;2.33;;;28.00;44.90;;;;;;4978299;28;20244;-70
2022/05/20 11:18:12;;;;;;;2.22;2.13;;;28.00;44.90;;;;;;4977941;28;20201;-70
2022/05/20 11:20:48;;;;;;;2.05;1.95;;;27.90;44.90;;;;;;4977852;28;20182;-70
2022/05/20 11:23:34;;;;;;;2.20;2.10;;;27.90;44.90;;;;;;4977591;28;20177;-71
2022/05/20 11:26:21;;;;;;;2.00;1.90;;;27.90;45.00;;;;;;4991594;28;20205;-69
2022/05/20 11:29:13;;;;;;;2.30;2.10;;;27.90;45.00;;;;;;4981728;28;20201;-70
2022/05/20 11:31:48;;;;;;;2.33;2.13;;;27.90;45.20;;;;;;4977628;28;20260;-70
2022/05/20 11:34:45;;;;;;;2.28;2.08;;;27.80;45.10;;;;;;4976334;28;20201;-70
2022/05/20 11:37:35;;;;;;;2.00;1.90;;;27.80;45.20;;;;;;4962011;28;20312;-71
2022/05/20 11:40:19;;;;;;;2.10;2.00;;;27.80;45.30;;;;;;4975886;28;20197;-70
2022/05/20 11:42:57;;;;;;;2.13;2.03;;;27.70;45.40;;;;;;4976145;28;20204;-71
2022/05/20 11:45:28;;;;;;;2.10;2.00;;;27.70;45.40;;;;;;4975938;28;20232;-71
2022/05/20 11:48:06;;;;;;;2.10;2.00;;;27.70;45.50;;;;;;4975780;28;20268;-71
2022/05/20 11:51:01;;;;;;;2.00;1.90;;;27.60;45.50;;;;;;4976007;28;20644;-71
2022/05/20 11:53:30;;;;;;;2.10;2.00;;;27.60;45.70;;;;;;4971130;28;20205;-70
2022/05/20 11:56:02;;;;;;;2.00;1.80;;;27.60;45.70;;;;;;4977141;28;20219;-70
2022/05/20 11:58:33;;;;;;;2.00;1.90;;;27.60;45.80;;;;;;4975537;28;20193;-71
2022/05/20 12:01:00;;;;;;;2.22;2.10;;;27.60;45.90;;;;;;4977043;28;20634;-71
2022/05/20 12:03:30;;;;;;;2.38;2.15;;;27.60;45.90;;;;;;4975821;28;20332;-71
2022/05/20 12:05:58;;;;;;;2.35;2.25;;;27.60;46.00;;;;;;4975548;28;20221;-71
2022/05/20 12:08:50;;;;;;;2.20;2.10;;;27.60;46.10;;;;;;4976871;28;20268;-70
2022/05/20 12:11:23;;;;;;;2.17;2.08;;;27.60;46.10;;;;;;4975041;28;20604;-71
2022/05/20 12:14:13;;;;;;;2.22;2.13;;;27.50;46.10;;;;;;4975255;28;20225;-70
2022/05/20 12:16:54;;;;;;;1.95;1.85;;;27.50;46.50;;;;;;4971859;28;20316;-70
2022/05/20 12:24:54;;;;;;;2.25;2.13;;;27.50;46.90;;;;;;4975276;28;20201;-70
2022/05/20 12:27:37;;;;;;;2.30;2.10;;;27.50;46.30;;;;;;4975151;28;20602;-70
2022/05/20 12:30:10;;;;;;;1.90;1.80;;;27.40;46.20;;;;;;4974900;28;20201;-70
2022/05/20 12:32:47;;;;;;;2.17;2.08;;;27.40;46.30;;;;;;4974930;28;20209;-71
2022/05/20 12:35:21;;;;;;;2.15;2.05;;;27.40;46.30;;;;;;4975070;28;20597;-71
2022/05/20 12:38:24;;;;;;;2.33;2.08;;;27.40;46.40;;;;;;4974863;28;20200;-70
2022/05/20 12:41:01;;;;;;;2.20;2.00;;;27.40;47.00;;;;;;4974553;28;20205;-71
2022/05/20 12:43:51;;;;;;;2.17;2.08;;;27.40;46.40;;;;;;4974920;28;20206;-71
2022/05/20 12:46:23;;;;;;;2.10;2.00;;;27.40;46.40;;;;;;4975529;28;20224;-71
2022/05/20 12:48:52;;;;;;;2.28;2.17;;;27.40;46.50;;;;;;4974989;28;20248;-71
2022/05/20 12:51:21;;;;;;;2.35;2.15;;;27.40;46.50;;;;;;4982274;28;20221;-71
2022/05/20 12:53:48;;;;;;;2.03;1.92;;;27.40;46.50;;;;;;4984437;28;20203;-71
2022/05/20 12:56:26;;;;;;;2.35;2.25;;;27.40;46.60;;;;;;4979801;28;20213;-70
2022/05/20 12:58:53;;;;;;;2.30;2.20;;;27.40;46.60;;;;;;4976282;28;20209;-71
2022/05/20 13:01:20;;;;;;;2.10;2.00;;;27.40;46.60;;;;;;4975508;28;20212;-71
2022/05/20 13:03:47;;;;;;;2.10;2.00;;;27.40;46.60;;;;;;4974980;28;20198;-70
2022/05/20 13:06:16;;;;;;;2.50;2.30;;;27.40;46.60;;;;;;4974826;28;20597;-71
2022/05/20 13:08:46;;;;;;;2.15;2.05;;;27.40;46.70;;;;;;4974532;28;20205;-70
2022/05/20 13:11:14;;;;;;;2.25;2.15;;;27.40;46.60;;;;;;4974307;28;20229;-70
2022/05/20 13:13:42;;;;;;;1.95;1.85;;;27.40;46.60;;;;;;4974457;28;20296;-71
2022/05/20 13:16:10;;;;;;;2.03;1.92;;;27.40;46.70;;;;;;4974382;28;20217;-71
2022/05/20 13:18:38;;;;;;;2.03;1.92;;;27.40;46.70;;;;;;4975575;28;20670;-70
2022/05/20 13:21:07;;;;;;;2.08;1.98;;;27.40;46.70;;;;;;4976114;28;20209;-71
2022/05/20 13:23:35;;;;;;;2.30;2.10;;;27.40;46.70;;;;;;4982013;28;20265;-71
2022/05/20 13:26:03;;;;;;;2.20;2.10;;;27.40;46.70;;;;;;4975530;28;20213;-71
2022/05/20 13:28:32;;;;;;;2.50;2.30;;;27.40;46.70;;;;;;4974097;28;20201;-71
2022/05/20 13:31:03;;;;;;;2.10;2.00;;;27.40;46.70;;;;;;4975092;28;20683;-71
2022/05/20 13:33:30;;;;;;;2.22;2.13;;;27.40;46.70;;;;;;4975244;28;20222;-71
2022/05/20 13:35:57;;;;;;;2.20;2.00;;;27.40;47.40;;;;;;4974307;28;20228;-72
2022/05/20 13:38:26;;;;;;;2.88;2.20;;;27.30;46.70;;;;;;4975112;28;20207;-71
2022/05/20 13:40:53;;;;;;;2.20;2.10;;;27.40;46.80;;;;;;4974931;28;20272;-71
2022/05/20 13:43:27;;;;;;;1.95;1.85;;;27.40;46.90;;;;;;4974830;28;20256;-71